createdAt,value
2019-01-18T11:28:13.027Z,1.77
2019-01-18T11:53:46.905Z,1.90
2019-01-18T11:56:17.323Z,2.07
2019-01-18T11:58:47.826Z,2.10
2019-01-18T12:01:18.370Z,2.30
2019-01-18T12:03:48.742Z,1.80
2019-01-18T12:06:20.063Z,2.30
2019-01-18T12:08:50.715Z,2.30
2019-01-18T12:11:21.014Z,2.90
2019-01-18T12:13:51.667Z,2.17
2019-01-18T12:16:23.655Z,3.90
2019-01-18T12:18:56.107Z,2.43
2019-01-18T12:21:29.490Z,2.73
2019-01-18T14:20:50.483Z,9.43
2019-01-18T14:23:26.892Z,5.17
2019-01-18T14:26:03.546Z,4.10
2019-01-18T14:28:38.976Z,4.20
2019-01-18T14:31:15.417Z,4.40
2019-01-18T14:33:50.669Z,4.83
2019-01-18T14:36:24.897Z,4.77
2019-01-18T14:38:57.549Z,4.43
2019-01-18T14:41:31.357Z,5.03
2019-01-18T14:44:04.223Z,4.77
2019-01-18T14:46:36.554Z,5.37
2019-01-18T14:49:08.025Z,4.93
2019-01-18T14:51:40.066Z,4.73
2019-01-18T14:54:11.696Z,4.43
2019-01-18T14:56:43.465Z,4.47
2019-01-18T14:59:15.231Z,4.53
2019-01-18T15:01:47.232Z,5.00
2019-01-18T15:04:19.762Z,4.50
2019-01-18T15:06:51.093Z,5.40
2019-01-18T15:09:22.831Z,6.10
2019-01-18T15:11:54.465Z,5.40
2019-01-18T15:14:26.479Z,5.30
2019-01-18T15:16:58.603Z,5.93
2019-01-18T15:19:30.729Z,6.33
2019-01-18T15:22:03.034Z,6.50
2019-01-18T15:24:36.291Z,6.00
2019-01-18T15:27:06.516Z,12.10
2019-01-18T15:29:38.539Z,21.70
2019-01-18T15:32:10.646Z,7.93
2019-01-18T15:34:42.592Z,5.87
2019-01-18T15:37:14.041Z,6.10
2019-01-18T15:39:45.294Z,8.07
2019-01-18T15:42:16.931Z,7.30
2019-01-18T15:44:48.436Z,12.30
2019-01-18T15:47:22.318Z,11.63
2019-01-18T15:49:58.696Z,8.23
2019-01-18T15:52:31.348Z,9.10
2019-01-18T15:55:04.323Z,6.87
2019-01-18T15:57:39.253Z,6.73
2019-01-18T16:09:56.389Z,10.53
2019-01-18T16:12:28.615Z,5.40
2019-01-18T18:16:44.788Z,14.90
2019-01-18T19:35:06.763Z,20.07
2019-01-18T19:40:00.623Z,18.83
2019-01-18T19:43:32.818Z,16.20
2019-01-18T19:46:38.944Z,17.27
2019-01-18T19:49:45.808Z,15.70
